createdAt,value
2022-10-13T00:00:51.332Z,367.20
2022-10-13T00:01:51.288Z,368.90
2022-10-13T00:02:51.243Z,368.40
2022-10-13T00:03:51.245Z,363.80
2022-10-13T00:04:51.220Z,360.60
2022-10-13T00:05:51.202Z,358.40
2022-10-13T00:06:51.228Z,363.20
2022-10-13T00:07:51.174Z,368.60
2022-10-13T00:08:51.171Z,361.10
2022-10-13T00:09:51.169Z,368.20
2022-10-13T00:10:51.159Z,370.00
2022-10-13T00:11:51.196Z,364.80
2022-10-13T00:12:51.119Z,369.10
2022-10-13T00:13:51.120Z,362.10
2022-10-13T00:14:51.091Z,371.30
2022-10-13T00:15:51.102Z,366.30
2022-10-13T00:16:51.145Z,367.80
2022-10-13T00:17:51.080Z,372.20
2022-10-13T00:18:51.055Z,365.20
2022-10-13T00:19:51.037Z,374.00
2022-10-13T00:20:51.011Z,383.90
2022-10-13T00:21:51.058Z,396.30
2022-10-13T00:22:51.024Z,403.70
2022-10-13T00:23:51.003Z,409.80
2022-10-13T00:24:50.998Z,398.70
2022-10-13T00:25:50.976Z,383.70
2022-10-13T00:26:51.006Z,373.10
2022-10-13T00:27:50.960Z,369.50
2022-10-13T00:28:52.844Z,370.00
2022-10-13T00:29:50.937Z,362.00
2022-10-13T00:30:50.924Z,359.90
2022-10-13T00:31:50.938Z,355.50
2022-10-13T00:32:50.901Z,359.30
2022-10-13T00:33:50.886Z,359.10
2022-10-13T00:34:50.877Z,360.50
2022-10-13T00:35:50.857Z,367.00
2022-10-13T00:36:50.895Z,375.50
2022-10-13T00:37:50.843Z,378.50
2022-10-13T00:38:50.952Z,384.10
2022-10-13T00:39:50.818Z,376.20
2022-10-13T00:40:50.800Z,389.10
2022-10-13T00:41:50.926Z,387.80
2022-10-13T00:42:50.779Z,394.40
2022-10-13T00:43:50.790Z,393.80
2022-10-13T00:44:50.751Z,402.00
2022-10-13T00:45:50.765Z,404.40
2022-10-13T00:46:50.790Z,402.90
2022-10-13T00:47:50.721Z,410.50
2022-10-13T00:48:50.712Z,420.80
2022-10-13T00:49:50.707Z,428.20
2022-10-13T00:50:50.681Z,425.30
2022-10-13T00:51:50.712Z,418.00
2022-10-13T00:52:50.653Z,427.00
2022-10-13T00:53:50.654Z,430.80
2022-10-13T00:54:50.655Z,409.30
2022-10-13T00:55:50.646Z,391.90
2022-10-13T00:56:50.665Z,393.70
2022-10-13T00:57:50.616Z,382.00
2022-10-13T00:58:50.606Z,382.60
2022-10-13T00:59:50.600Z,384.00
2022-10-13T01:00:50.616Z,390.70
2022-10-13T01:01:50.609Z,388.60
2022-10-13T01:02:50.552Z,375.60
2022-10-13T01:03:50.533Z,374.60
2022-10-13T01:04:50.533Z,369.10
2022-10-13T01:05:50.522Z,368.70
2022-10-13T01:06:50.530Z,367.40
2022-10-13T01:07:50.485Z,372.20
2022-10-13T01:08:50.506Z,375.30
2022-10-13T01:09:50.480Z,384.40
2022-10-13T01:10:50.456Z,395.80
2022-10-13T01:11:50.487Z,404.30
2022-10-13T01:12:50.432Z,403.00
2022-10-13T01:13:50.437Z,398.10
2022-10-13T01:14:50.417Z,394.00
2022-10-13T01:15:50.397Z,394.20
2022-10-13T01:16:50.437Z,395.10
2022-10-13T01:17:50.377Z,389.70
2022-10-13T01:18:50.377Z,379.50
2022-10-13T01:19:50.363Z,379.60
2022-10-13T01:20:50.332Z,379.40
2022-10-13T01:21:50.359Z,390.90
2022-10-13T01:22:50.389Z,398.70
2022-10-13T01:23:50.321Z,400.60
2022-10-13T01:24:50.295Z,398.90
2022-10-13T01:25:50.299Z,390.90
2022-10-13T01:26:50.333Z,385.00
2022-10-13T01:27:50.258Z,388.60
2022-10-13T01:28:50.338Z,392.30
2022-10-13T01:29:50.244Z,390.70
2022-10-13T01:30:50.240Z,377.60
2022-10-13T01:31:50.278Z,373.80
2022-10-13T01:32:50.219Z,378.60
2022-10-13T01:33:50.196Z,382.70
2022-10-13T01:34:50.185Z,372.10
2022-10-13T01:35:50.179Z,371.20
2022-10-13T01:36:50.215Z,362.70
2022-10-13T01:37:50.160Z,362.70
2022-10-13T01:38:50.143Z,357.90
2022-10-13T01:39:50.140Z,361.20
2022-10-13T01:40:50.126Z,368.10
2022-10-13T01:41:50.124Z,366.70
2022-10-13T01:42:50.100Z,363.20
2022-10-13T01:43:50.081Z,374.70
2022-10-13T01:44:50.087Z,372.70
2022-10-13T01:45:50.064Z,379.80
2022-10-13T01:46:50.094Z,360.80
2022-10-13T01:47:50.039Z,338.80
2022-10-13T01:48:50.039Z,299.40
2022-10-13T01:49:50.004Z,291.30
2022-10-13T01:50:49.994Z,278.60
2022-10-13T01:51:50.035Z,278.80
2022-10-13T01:52:49.970Z,282.30
2022-10-13T01:53:50.008Z,297.30
2022-10-13T01:54:49.956Z,308.60
2022-10-13T01:55:49.955Z,313.30
2022-10-13T01:56:49.993Z,311.60
2022-10-13T01:57:49.929Z,313.20
2022-10-13T01:58:49.915Z,311.70
2022-10-13T01:59:49.898Z,308.50
2022-10-13T02:00:49.938Z,295.00
2022-10-13T02:01:49.929Z,279.30
2022-10-13T02:02:49.856Z,252.30
2022-10-13T02:03:49.852Z,229.40
2022-10-13T02:04:49.872Z,236.30
2022-10-13T02:05:49.840Z,236.90
2022-10-13T02:06:49.871Z,237.90
2022-10-13T02:07:49.819Z,290.80
2022-10-13T02:08:49.800Z,294.40
2022-10-13T02:09:49.792Z,281.10
2022-10-13T02:10:49.780Z,289.80
2022-10-13T02:11:49.816Z,268.00
2022-10-13T02:12:49.760Z,272.60
2022-10-13T02:13:49.736Z,271.70
2022-10-13T02:14:49.737Z,267.00
2022-10-13T02:15:49.713Z,255.20
2022-10-13T02:16:49.747Z,257.50
2022-10-13T02:17:49.689Z,246.50
2022-10-13T02:18:49.700Z,239.50
2022-10-13T02:19:49.701Z,244.10
2022-10-13T02:20:49.649Z,265.20
2022-10-13T02:21:49.688Z,270.30
2022-10-13T02:22:49.627Z,277.70
2022-10-13T02:23:49.635Z,289.90
2022-10-13T02:24:49.624Z,276.10
2022-10-13T02:25:49.606Z,268.80
2022-10-13T02:26:49.647Z,250.00
2022-10-13T02:27:49.603Z,242.70
2022-10-13T02:28:49.612Z,242.40
2022-10-13T02:29:49.579Z,239.50
2022-10-13T02:30:49.556Z,239.70
2022-10-13T02:31:49.587Z,244.60
2022-10-13T02:32:49.542Z,349.90
2022-10-13T02:33:49.510Z,333.70
2022-10-13T02:34:49.522Z,347.50
2022-10-13T02:35:49.493Z,355.90
2022-10-13T02:36:49.515Z,370.50
2022-10-13T02:37:49.473Z,382.30
2022-10-13T02:38:49.495Z,385.00
2022-10-13T02:39:49.461Z,424.20
2022-10-13T02:40:49.435Z,391.80
2022-10-13T02:41:49.470Z,352.20
2022-10-13T02:42:49.419Z,408.20
2022-10-13T02:43:49.415Z,317.70
2022-10-13T02:44:49.396Z,296.70
2022-10-13T02:45:49.372Z,290.00
2022-10-13T02:46:49.416Z,367.40
2022-10-13T02:47:49.358Z,415.70
2022-10-13T02:48:49.364Z,453.60
2022-10-13T02:49:49.335Z,436.90
2022-10-13T02:50:49.314Z,478.60
2022-10-13T02:51:49.351Z,471.30
2022-10-13T02:52:49.296Z,486.40
2022-10-13T02:53:49.306Z,490.80
2022-10-13T02:54:49.325Z,495.00
2022-10-13T02:55:49.277Z,501.70
2022-10-13T02:56:49.310Z,501.60
2022-10-13T02:57:49.255Z,499.20
2022-10-13T02:58:49.240Z,499.60
2022-10-13T02:59:49.230Z,467.30
2022-10-13T03:00:49.249Z,460.90
2022-10-13T03:01:49.245Z,459.80
2022-10-13T03:02:49.220Z,458.10
2022-10-13T03:03:49.173Z,461.70
2022-10-13T03:04:49.180Z,460.30
2022-10-13T03:05:49.163Z,448.60
2022-10-13T03:06:49.192Z,441.40
2022-10-13T03:07:49.138Z,441.90
2022-10-13T03:08:49.140Z,442.70
2022-10-13T03:09:49.117Z,453.50
2022-10-13T03:10:49.099Z,452.50
2022-10-13T03:11:49.129Z,451.80
2022-10-13T03:12:49.085Z,453.10
2022-10-13T03:13:49.074Z,444.40
2022-10-13T03:14:49.073Z,438.00
2022-10-13T03:15:49.064Z,437.50
2022-10-13T03:16:49.096Z,441.40
2022-10-13T03:17:49.024Z,479.20
2022-10-13T03:18:49.032Z,486.50
2022-10-13T03:19:48.999Z,489.80
2022-10-13T03:20:48.980Z,484.80
2022-10-13T03:21:49.006Z,489.90
2022-10-13T03:22:50.045Z,495.60
2022-10-13T03:23:48.960Z,482.90
2022-10-13T03:24:48.988Z,493.20
2022-10-13T03:25:48.934Z,492.50
2022-10-13T03:26:48.970Z,495.60
2022-10-13T03:27:48.908Z,488.00
2022-10-13T03:28:48.953Z,475.40
2022-10-13T03:29:48.896Z,441.10
2022-10-13T03:30:48.895Z,377.00
2022-10-13T03:31:48.911Z,330.30
2022-10-13T03:32:48.864Z,276.20
2022-10-13T03:33:48.832Z,261.20
2022-10-13T03:34:48.841Z,246.20
2022-10-13T03:35:48.817Z,249.30
2022-10-13T03:36:48.851Z,250.90
2022-10-13T03:37:48.790Z,246.60
2022-10-13T03:38:48.796Z,257.90
2022-10-13T03:39:48.771Z,262.30
2022-10-13T03:40:48.789Z,266.80
2022-10-13T03:41:48.808Z,261.80
2022-10-13T03:42:48.757Z,267.70
2022-10-13T03:43:48.729Z,280.50
2022-10-13T03:44:52.386Z,279.80
2022-10-13T03:45:49.729Z,291.00
2022-10-13T03:46:48.758Z,314.00
2022-10-13T03:47:48.697Z,350.40
2022-10-13T03:48:48.673Z,370.20
2022-10-13T03:49:48.650Z,399.70
2022-10-13T03:50:48.668Z,417.60
2022-10-13T03:51:48.687Z,428.70
2022-10-13T03:52:48.633Z,431.40
2022-10-13T03:53:48.601Z,442.70
2022-10-13T03:54:48.624Z,440.90
2022-10-13T03:55:48.606Z,443.60
2022-10-13T03:56:48.632Z,443.10
2022-10-13T03:57:48.577Z,452.30
2022-10-13T03:58:48.578Z,458.10
2022-10-13T03:59:48.556Z,456.50
2022-10-13T04:00:48.539Z,462.40
2022-10-13T04:01:48.629Z,476.30
2022-10-13T04:02:48.518Z,470.50
2022-10-13T04:03:48.516Z,477.20
2022-10-13T04:04:48.504Z,478.00
2022-10-13T04:05:48.499Z,481.40
2022-10-13T04:06:48.512Z,497.70
2022-10-13T04:07:48.461Z,495.40
2022-10-13T04:08:48.459Z,487.80
2022-10-13T04:09:48.470Z,451.40
2022-10-13T04:10:48.449Z,447.40
2022-10-13T04:11:48.475Z,428.80
2022-10-13T04:12:48.432Z,446.90
2022-10-13T04:13:48.396Z,454.70
2022-10-13T04:14:48.374Z,434.90
2022-10-13T04:15:48.382Z,410.50
2022-10-13T04:16:48.417Z,401.30
2022-10-13T04:17:48.394Z,421.00
2022-10-13T04:18:48.343Z,400.10
2022-10-13T04:19:48.335Z,358.30
2022-10-13T04:20:48.310Z,324.70
2022-10-13T04:21:48.344Z,300.40
2022-10-13T04:22:48.302Z,300.60
2022-10-13T04:23:48.297Z,300.10
2022-10-13T04:24:48.283Z,278.50
2022-10-13T04:25:48.248Z,272.10
2022-10-13T04:26:48.308Z,293.30
2022-10-13T04:27:48.239Z,290.50
2022-10-13T04:28:48.290Z,335.20
2022-10-13T04:29:48.218Z,380.80
2022-10-13T04:30:49.615Z,310.00
2022-10-13T04:31:48.231Z,330.80
2022-10-13T04:32:48.176Z,367.20
2022-10-13T04:33:48.179Z,375.40
2022-10-13T04:34:48.154Z,356.00
2022-10-13T04:35:48.163Z,349.80
2022-10-13T04:36:48.190Z,328.20
2022-10-13T04:37:48.152Z,314.60
2022-10-13T04:38:48.123Z,310.60
2022-10-13T04:39:48.101Z,318.50
2022-10-13T04:40:48.103Z,337.60
2022-10-13T04:41:48.139Z,343.70
2022-10-13T04:42:48.081Z,340.90
2022-10-13T04:43:48.062Z,314.90
2022-10-13T04:44:48.062Z,296.70
2022-10-13T04:45:48.053Z,332.70
2022-10-13T04:46:48.071Z,383.60
2022-10-13T04:47:48.016Z,357.50
2022-10-13T04:48:48.016Z,325.50
2022-10-13T04:49:47.991Z,321.30
2022-10-13T04:50:47.962Z,333.50
2022-10-13T04:51:47.991Z,368.60
2022-10-13T04:52:47.937Z,378.10
2022-10-13T04:53:47.931Z,368.40
2022-10-13T04:54:47.939Z,357.20
2022-10-13T04:55:47.943Z,371.30
2022-10-13T04:56:47.957Z,376.90
2022-10-13T04:57:47.905Z,378.40
2022-10-13T04:58:47.895Z,379.70
2022-10-13T04:59:47.871Z,370.30
2022-10-13T05:00:47.917Z,352.10
2022-10-13T05:01:47.896Z,336.00
2022-10-13T05:02:47.849Z,349.00
2022-10-13T05:03:47.839Z,362.00
2022-10-13T05:04:47.827Z,368.30
2022-10-13T05:05:47.818Z,371.20
2022-10-13T05:07:16.022Z,375.30
2022-10-13T05:07:48.773Z,367.70
2022-10-13T05:08:47.778Z,363.90
2022-10-13T05:09:47.764Z,361.40
2022-10-13T05:10:47.758Z,377.60
2022-10-13T05:11:47.812Z,378.30
2022-10-13T05:12:47.753Z,358.20
2022-10-13T05:13:47.717Z,343.40
2022-10-13T05:14:47.728Z,340.00
2022-10-13T05:15:47.708Z,316.50
2022-10-13T05:16:47.748Z,302.50
2022-10-13T05:17:47.683Z,290.30
2022-10-13T05:18:47.668Z,281.60
2022-10-13T05:19:47.640Z,285.30
2022-10-13T05:20:47.625Z,286.10
2022-10-13T05:21:47.680Z,262.80
2022-10-13T05:22:47.643Z,258.80
2022-10-13T05:23:47.602Z,254.80
2022-10-13T05:24:47.605Z,254.90
2022-10-13T05:25:47.590Z,274.90
2022-10-13T05:26:47.611Z,295.90
2022-10-13T05:27:47.558Z,307.00
2022-10-13T05:28:47.607Z,313.80
2022-10-13T05:29:47.548Z,351.30
2022-10-13T05:30:47.516Z,340.50
2022-10-13T05:31:47.556Z,327.40
2022-10-13T05:32:51.514Z,317.80
2022-10-13T05:33:48.538Z,317.80
2022-10-13T05:34:47.478Z,323.80
2022-10-13T05:35:47.475Z,327.50
2022-10-13T05:36:47.522Z,270.10
2022-10-13T05:37:47.457Z,239.30
2022-10-13T05:38:47.450Z,223.50
2022-10-13T05:39:48.976Z,245.10
2022-10-13T05:40:47.399Z,281.20
2022-10-13T05:41:47.487Z,285.70
2022-10-13T05:42:47.393Z,299.20
2022-10-13T05:43:47.380Z,298.40
2022-10-13T05:44:47.376Z,371.60
2022-10-13T05:45:47.365Z,354.10
2022-10-13T05:46:47.402Z,319.90
2022-10-13T05:47:47.337Z,351.60
2022-10-13T05:48:47.325Z,275.90
2022-10-13T05:49:47.306Z,336.80
2022-10-13T05:50:47.291Z,371.50
2022-10-13T05:51:47.326Z,243.60
2022-10-13T05:52:47.281Z,324.70
2022-10-13T05:53:51.093Z,347.60
2022-10-13T05:54:48.260Z,237.10
2022-10-13T05:55:47.238Z,134.00
2022-10-13T05:56:47.270Z,340.90
2022-10-13T05:57:47.230Z,346.20
2022-10-13T05:58:47.228Z,317.50
2022-10-13T05:59:47.205Z,312.70
2022-10-13T06:00:47.208Z,296.10
2022-10-13T06:01:47.259Z,294.30
2022-10-13T06:02:47.212Z,280.90
2022-10-13T06:03:47.159Z,263.00
2022-10-13T06:04:47.158Z,257.60
2022-10-13T06:05:47.154Z,251.40
2022-10-13T06:06:47.109Z,161.40
2022-10-13T06:07:47.165Z,147.60
2022-10-13T06:08:47.094Z,257.40
2022-10-13T06:09:47.097Z,303.40
2022-10-13T06:10:47.073Z,242.40
2022-10-13T06:11:47.058Z,169.90
2022-10-13T06:12:47.095Z,144.50
2022-10-13T06:13:47.043Z,140.30
2022-10-13T06:14:47.047Z,168.10
2022-10-13T06:15:47.017Z,269.70
2022-10-13T06:16:47.047Z,149.80
2022-10-13T06:17:47.176Z,126.20
2022-10-13T06:18:46.992Z,200.20
2022-10-13T06:19:46.960Z,158.00
2022-10-13T06:20:46.945Z,196.30
2022-10-13T06:21:46.950Z,163.90
2022-10-13T06:22:46.996Z,145.00
2022-10-13T06:23:46.915Z,279.80
2022-10-13T06:24:46.919Z,222.00
2022-10-13T06:25:46.896Z,161.00
2022-10-13T06:26:46.938Z,152.80
2022-10-13T06:27:46.928Z,239.60
2022-10-13T06:28:50.180Z,234.80
2022-10-13T06:29:47.856Z,178.30
2022-10-13T06:30:46.863Z,261.90
2022-10-13T06:31:46.826Z,239.80
2022-10-13T06:32:46.878Z,266.40
2022-10-13T06:33:46.824Z,252.90
2022-10-13T06:34:46.803Z,191.80
2022-10-13T06:35:46.796Z,250.80
2022-10-13T06:36:46.784Z,238.80
2022-10-13T06:37:46.819Z,212.30
2022-10-13T06:38:46.760Z,293.30
2022-10-13T06:39:46.774Z,299.50
2022-10-13T06:40:46.749Z,249.90
2022-10-13T06:41:46.723Z,254.70
2022-10-13T06:42:46.749Z,186.60
2022-10-13T06:43:46.696Z,126.60
2022-10-13T06:44:46.700Z,242.10
2022-10-13T06:45:46.674Z,161.20
2022-10-13T06:46:46.682Z,90.80
2022-10-13T06:47:46.700Z,152.80
2022-10-13T06:48:46.654Z,131.90
2022-10-13T06:49:46.614Z,78.20
2022-10-13T06:50:46.612Z,165.10
2022-10-13T06:51:46.629Z,73.30
2022-10-13T06:52:46.653Z,85.80
2022-10-13T06:53:46.616Z,84.20
2022-10-13T06:54:46.588Z,94.90
2022-10-13T06:55:51.564Z,120.80
2022-10-13T06:56:47.552Z,169.80
2022-10-13T06:57:46.588Z,181.90
2022-10-13T06:58:46.541Z,150.50
2022-10-13T06:59:46.533Z,120.50
2022-10-13T07:00:46.528Z,104.90
2022-10-13T07:01:46.498Z,93.90
2022-10-13T07:02:46.541Z,109.70
2022-10-13T07:03:46.482Z,89.30
2022-10-13T07:04:46.467Z,77.90
2022-10-13T07:05:46.471Z,83.30
2022-10-13T07:06:46.460Z,106.50
2022-10-13T07:07:46.492Z,79.90
2022-10-13T07:08:46.410Z,86.90
2022-10-13T07:09:46.419Z,111.30
2022-10-13T07:10:46.389Z,89.00
2022-10-13T07:11:46.376Z,91.60
2022-10-13T07:12:46.413Z,161.40
2022-10-13T07:13:47.045Z,227.40
2022-10-13T07:14:46.352Z,54.10
2022-10-13T07:15:46.353Z,71.40
2022-10-13T07:16:46.333Z,80.10
2022-10-13T07:17:46.371Z,97.60
2022-10-13T07:18:46.296Z,75.70
2022-10-13T07:19:46.291Z,90.60
2022-10-13T07:20:46.305Z,306.80
2022-10-13T07:21:46.290Z,230.40
2022-10-13T07:22:46.295Z,50.20
2022-10-13T07:23:46.256Z,55.30
2022-10-13T07:24:46.242Z,56.40
2022-10-13T07:25:46.236Z,84.80
2022-10-13T07:26:46.215Z,51.70
2022-10-13T07:27:46.246Z,60.50
2022-10-13T07:28:46.239Z,74.40
2022-10-13T07:29:46.192Z,50.50
2022-10-13T07:30:46.178Z,66.50
2022-10-13T07:31:46.207Z,73.80
2022-10-13T07:32:46.179Z,67.80
2022-10-13T07:33:46.129Z,85.20
2022-10-13T07:34:46.129Z,76.40
2022-10-13T07:35:46.125Z,101.80
2022-10-13T07:36:46.109Z,98.60
2022-10-13T07:37:46.161Z,120.50
2022-10-13T07:38:46.096Z,109.70
2022-10-13T07:39:46.068Z,127.80
2022-10-13T07:40:46.078Z,118.90
2022-10-13T07:41:50.744Z,116.70
2022-10-13T07:42:47.093Z,109.10
2022-10-13T07:43:46.046Z,91.60
2022-10-13T07:44:45.987Z,85.70
2022-10-13T07:45:46.013Z,120.80
2022-10-13T07:46:45.982Z,65.20
2022-10-13T07:47:46.014Z,49.60
2022-10-13T07:48:45.947Z,76.70
2022-10-13T07:49:45.946Z,70.20
2022-10-13T07:50:45.957Z,105.70
2022-10-13T07:51:45.952Z,181.00
2022-10-13T07:52:45.987Z,240.20
2022-10-13T07:53:45.931Z,937.10
2022-10-13T07:54:45.912Z,999.90
2022-10-13T07:55:45.888Z,999.90
2022-10-13T07:56:45.868Z,999.90
2022-10-13T07:57:45.898Z,999.90
2022-10-13T07:58:45.850Z,999.90
2022-10-13T07:59:45.866Z,999.90
2022-10-13T08:00:45.827Z,999.90
2022-10-13T08:01:45.873Z,999.90
2022-10-13T08:02:45.876Z,999.90
2022-10-13T08:03:49.084Z,999.90
2022-10-13T08:04:46.800Z,999.90
2022-10-13T08:05:45.769Z,999.90
2022-10-13T08:06:45.814Z,999.90
2022-10-13T08:07:45.747Z,999.90
2022-10-13T08:08:45.764Z,999.90
2022-10-13T08:09:45.740Z,999.90
2022-10-13T08:10:45.731Z,999.90
2022-10-13T08:11:45.735Z,999.90
2022-10-13T08:12:45.698Z,999.90
2022-10-13T08:13:45.702Z,999.90
2022-10-13T08:14:45.832Z,999.90
2022-10-13T08:15:45.697Z,999.90
2022-10-13T08:16:48.689Z,999.90
2022-10-13T08:17:46.623Z,999.90
2022-10-13T08:18:45.635Z,999.90
2022-10-13T08:19:45.622Z,999.90
2022-10-13T08:20:45.614Z,214.80
2022-10-13T08:22:00.975Z,999.90
2022-10-13T08:22:46.597Z,896.70
2022-10-13T08:23:45.574Z,43.20
2022-10-13T08:24:45.574Z,55.80
2022-10-13T08:25:45.545Z,48.60
2022-10-13T08:26:45.590Z,16.20
2022-10-13T08:27:51.087Z,226.90
2022-10-13T08:29:02.975Z,19.50
2022-10-13T08:29:46.515Z,24.60
2022-10-13T08:30:45.619Z,24.50
2022-10-13T08:31:45.721Z,13.90
2022-10-13T08:32:45.471Z,11.50
2022-10-13T08:33:45.445Z,11.40
2022-10-13T08:34:45.453Z,12.30
2022-10-13T08:35:45.425Z,11.70
2022-10-13T08:36:45.461Z,10.00
2022-10-13T08:37:45.439Z,11.10
2022-10-13T08:38:45.417Z,11.50
2022-10-13T08:39:45.412Z,11.40
2022-10-13T08:40:45.402Z,11.00
2022-10-13T08:41:45.394Z,10.80
2022-10-13T08:42:45.344Z,11.40
2022-10-13T08:44:13.389Z,9.90
2022-10-13T08:45:46.319Z,9.80
2022-10-13T08:46:45.339Z,8.90
2022-10-13T08:47:45.292Z,10.70
2022-10-13T08:48:45.296Z,10.20
2022-10-13T08:49:45.284Z,10.00
2022-10-13T08:50:45.259Z,9.80
2022-10-13T08:51:45.305Z,9.60
2022-10-13T08:52:45.293Z,10.30
2022-10-13T08:53:45.250Z,8.90
2022-10-13T08:54:45.218Z,8.70
2022-10-13T08:55:45.242Z,9.10
2022-10-13T08:56:45.198Z,9.50
2022-10-13T08:57:45.246Z,9.60
2022-10-13T08:58:45.180Z,11.10
2022-10-13T08:59:45.160Z,10.20
2022-10-13T09:00:45.165Z,9.60
2022-10-13T09:01:45.174Z,8.40
2022-10-13T09:02:45.176Z,8.20
2022-10-13T09:03:45.121Z,8.00
2022-10-13T09:04:45.124Z,8.40
2022-10-13T09:05:45.094Z,8.70
2022-10-13T09:06:45.078Z,8.30
2022-10-13T09:07:45.148Z,8.90
2022-10-13T09:08:45.059Z,8.50
2022-10-13T09:09:45.103Z,9.10
2022-10-13T09:10:45.034Z,8.90
2022-10-13T09:11:45.053Z,8.40
2022-10-13T09:12:45.033Z,9.60
2022-10-13T09:13:45.010Z,9.70
2022-10-13T09:14:45.055Z,9.20
2022-10-13T09:15:44.974Z,10.30
2022-10-13T09:16:44.976Z,9.70
2022-10-13T09:17:44.981Z,9.90
2022-10-13T09:18:44.955Z,9.60
2022-10-13T09:19:45.003Z,9.60
2022-10-13T09:20:44.925Z,8.80
2022-10-13T09:21:44.914Z,8.60
2022-10-13T09:22:44.910Z,10.10
2022-10-13T09:23:44.915Z,9.70
2022-10-13T09:24:44.926Z,9.90
2022-10-13T09:25:44.878Z,10.40
2022-10-13T09:26:44.838Z,9.20
2022-10-13T09:27:44.857Z,9.40
2022-10-13T09:28:45.937Z,9.10
2022-10-13T09:29:44.869Z,10.10
2022-10-13T09:30:44.810Z,9.40
2022-10-13T09:31:44.800Z,9.30
2022-10-13T09:32:44.800Z,9.20
2022-10-13T09:33:44.777Z,10.00
2022-10-13T09:34:44.810Z,10.20
2022-10-13T09:35:44.744Z,9.90
2022-10-13T09:36:44.753Z,9.40
2022-10-13T09:37:44.738Z,10.00
2022-10-13T09:38:44.705Z,9.30
2022-10-13T09:39:44.737Z,9.20
2022-10-13T09:40:44.709Z,8.40
2022-10-13T09:41:44.723Z,8.80
2022-10-13T09:42:44.675Z,8.90
2022-10-13T09:43:44.660Z,9.30
2022-10-13T09:44:44.698Z,8.50
2022-10-13T09:45:44.642Z,8.40
2022-10-13T09:46:44.635Z,8.00
2022-10-13T09:47:44.636Z,8.90
2022-10-13T09:48:44.620Z,8.30
2022-10-13T09:49:44.656Z,8.30
2022-10-13T09:50:44.602Z,8.40
2022-10-13T09:51:44.571Z,8.30
2022-10-13T09:52:44.560Z,8.30
2022-10-13T09:53:44.557Z,8.30
2022-10-13T09:54:44.586Z,8.50
2022-10-13T09:55:44.535Z,8.30
2022-10-13T09:56:44.523Z,8.20
2022-10-13T09:57:44.519Z,8.50
2022-10-13T09:59:44.530Z,8.60
2022-10-13T10:00:44.496Z,8.70
2022-10-13T10:01:44.469Z,8.40
2022-10-13T10:02:44.476Z,8.60
2022-10-13T10:03:44.553Z,8.20
2022-10-13T10:04:44.434Z,8.10
2022-10-13T10:05:44.426Z,8.50
2022-10-13T10:06:44.417Z,8.20
2022-10-13T10:07:44.401Z,8.40
2022-10-13T10:09:02.020Z,8.50
2022-10-13T10:09:45.406Z,8.60
2022-10-13T10:10:44.361Z,8.30
2022-10-13T10:11:44.373Z,8.40
2022-10-13T10:12:44.329Z,8.60
2022-10-13T10:13:44.377Z,8.80
2022-10-13T10:14:44.322Z,8.80
2022-10-13T10:15:44.307Z,8.70
2022-10-13T10:16:44.325Z,8.90
2022-10-13T10:17:44.289Z,8.40
2022-10-13T10:18:44.276Z,9.00
2022-10-13T10:19:44.337Z,9.10
2022-10-13T10:20:44.276Z,8.50
2022-10-13T10:21:44.246Z,8.80
2022-10-13T10:22:44.248Z,8.90
2022-10-13T10:23:44.226Z,9.10
2022-10-13T10:24:44.263Z,9.20
2022-10-13T10:25:44.198Z,8.90
2022-10-13T10:26:44.183Z,8.70
2022-10-13T10:27:44.194Z,8.60
2022-10-13T10:28:44.240Z,9.10
2022-10-13T10:29:44.185Z,8.20
2022-10-13T10:30:44.143Z,8.10
2022-10-13T10:31:44.135Z,8.00
2022-10-13T10:32:44.134Z,8.30
2022-10-13T10:33:44.115Z,8.30
2022-10-13T10:34:44.160Z,8.40
2022-10-13T10:35:44.102Z,8.00
2022-10-13T10:36:44.099Z,7.80
2022-10-13T10:37:44.055Z,8.20
2022-10-13T10:38:44.077Z,7.70
2022-10-13T10:39:44.070Z,8.50
2022-10-13T10:40:44.059Z,7.80
2022-10-13T10:41:44.004Z,8.90
2022-10-13T10:42:47.295Z,8.30
2022-10-13T10:43:44.982Z,8.60
2022-10-13T10:44:44.138Z,7.70
2022-10-13T10:45:43.986Z,8.80
2022-10-13T10:46:43.957Z,7.90
2022-10-13T10:47:43.971Z,8.20
2022-10-13T10:48:43.959Z,8.50
2022-10-13T10:49:43.973Z,8.60
2022-10-13T10:50:43.917Z,8.40
2022-10-13T10:51:43.922Z,8.40
2022-10-13T10:52:43.901Z,7.70
2022-10-13T10:53:43.876Z,8.30
2022-10-13T10:54:48.321Z,7.40
2022-10-13T10:55:44.873Z,7.80
2022-10-13T10:56:43.880Z,7.80
2022-10-13T10:57:43.832Z,7.90
2022-10-13T10:58:43.838Z,8.50
2022-10-13T10:59:43.880Z,8.80
2022-10-13T11:00:43.831Z,8.90
2022-10-13T11:01:43.841Z,8.40
2022-10-13T11:02:43.797Z,8.80
2022-10-13T11:03:43.769Z,8.50
2022-10-13T11:04:43.818Z,8.10
2022-10-13T11:05:43.765Z,8.00
2022-10-13T11:06:43.757Z,7.50
2022-10-13T11:07:43.748Z,7.50
2022-10-13T11:08:43.722Z,7.90
2022-10-13T11:09:43.767Z,8.30
2022-10-13T11:10:43.697Z,8.70
2022-10-13T11:11:43.679Z,8.40
2022-10-13T11:12:43.669Z,8.50
2022-10-13T11:13:43.688Z,8.80
2022-10-13T11:14:43.711Z,8.40
2022-10-13T11:15:43.668Z,8.30
2022-10-13T11:16:43.649Z,8.40
2022-10-13T11:17:43.624Z,9.20
2022-10-13T11:18:43.619Z,9.10
2022-10-13T11:19:43.665Z,9.10
2022-10-13T11:20:43.600Z,8.50
2022-10-13T11:21:43.623Z,8.70
2022-10-13T11:22:43.585Z,8.60
2022-10-13T11:23:43.569Z,8.60
2022-10-13T11:24:43.608Z,9.80
2022-10-13T11:25:43.532Z,8.80
2022-10-13T11:26:43.518Z,8.60
2022-10-13T11:27:43.514Z,8.80
2022-10-13T11:28:43.522Z,8.70
2022-10-13T11:29:43.570Z,8.60
2022-10-13T11:30:43.492Z,10.10
2022-10-13T11:31:43.496Z,9.00
2022-10-13T11:32:43.470Z,8.40
2022-10-13T11:33:43.461Z,7.70
2022-10-13T11:34:43.504Z,7.10
2022-10-13T11:35:43.425Z,7.40
2022-10-13T11:36:43.417Z,7.20
2022-10-13T11:37:48.298Z,7.00
2022-10-13T11:38:44.406Z,7.20
2022-10-13T11:39:43.420Z,7.60
2022-10-13T11:40:43.364Z,7.50
2022-10-13T11:41:43.358Z,8.20
2022-10-13T11:42:43.371Z,7.60
2022-10-13T11:43:43.374Z,7.50
2022-10-13T11:44:43.392Z,7.00
2022-10-13T11:45:43.312Z,6.90
2022-10-13T11:46:43.334Z,6.90
2022-10-13T11:47:43.292Z,7.00
2022-10-13T11:48:43.305Z,6.90
2022-10-13T11:49:43.313Z,7.40
2022-10-13T11:50:43.266Z,6.80
2022-10-13T11:51:43.264Z,6.90
2022-10-13T11:52:43.259Z,6.90
2022-10-13T11:53:43.232Z,7.50
2022-10-13T11:54:43.272Z,7.50
2022-10-13T11:55:43.234Z,7.30
2022-10-13T11:56:46.115Z,8.30
2022-10-13T11:57:44.196Z,7.20
2022-10-13T11:58:43.185Z,6.80
2022-10-13T11:59:43.213Z,7.40
2022-10-13T12:00:43.163Z,7.60
2022-10-13T12:01:43.150Z,7.40
2022-10-13T12:02:43.194Z,8.80
2022-10-13T12:03:43.114Z,8.60
2022-10-13T12:04:46.630Z,8.50
2022-10-13T12:05:43.093Z,8.20
2022-10-13T12:06:43.076Z,8.40
2022-10-13T12:07:43.077Z,7.90
2022-10-13T12:08:43.063Z,8.70
2022-10-13T12:09:43.099Z,7.90
2022-10-13T12:10:43.038Z,7.80
2022-10-13T12:11:43.036Z,8.40
2022-10-13T12:12:43.037Z,8.40
2022-10-13T12:13:43.001Z,8.00
2022-10-13T12:14:43.064Z,8.70
2022-10-13T12:15:42.987Z,8.80
2022-10-13T12:16:43.072Z,8.80
2022-10-13T12:17:42.973Z,8.70
2022-10-13T12:18:42.967Z,8.50
2022-10-13T12:19:42.983Z,8.80
2022-10-13T12:20:42.918Z,8.30
2022-10-13T12:21:42.915Z,8.40
2022-10-13T12:22:42.909Z,8.10
2022-10-13T12:23:42.897Z,7.70
2022-10-13T12:24:42.932Z,8.00
2022-10-13T12:25:42.880Z,7.60
2022-10-13T12:26:42.876Z,7.90
2022-10-13T12:27:42.859Z,7.90
2022-10-13T12:28:42.955Z,7.80
2022-10-13T12:29:42.870Z,8.10
2022-10-13T12:30:42.816Z,8.10
2022-10-13T12:31:42.821Z,8.00
2022-10-13T12:32:42.809Z,8.10
2022-10-13T12:33:42.771Z,7.60
2022-10-13T12:34:42.816Z,7.70
2022-10-13T12:35:42.761Z,8.60
2022-10-13T12:36:42.809Z,8.90
2022-10-13T12:37:42.737Z,8.40
2022-10-13T12:38:42.709Z,8.10
2022-10-13T12:39:42.757Z,7.80
2022-10-13T12:40:42.696Z,8.20
2022-10-13T12:41:42.707Z,8.10
2022-10-13T12:42:42.687Z,8.50
2022-10-13T12:43:42.681Z,8.20
2022-10-13T12:44:42.718Z,9.20
2022-10-13T12:45:42.654Z,11.10
2022-10-13T12:46:42.638Z,11.80
2022-10-13T12:47:42.648Z,11.00